createdAt,value
2018-07-25T00:01:58.890Z,16.87
2018-07-25T00:04:27.963Z,16.86
2018-07-25T00:06:57.013Z,16.69
2018-07-25T00:09:26.091Z,16.70
2018-07-25T00:14:32.928Z,16.97
2018-07-25T00:17:01.991Z,16.96
2018-07-25T00:19:32.007Z,17.07
2018-07-25T00:24:36.869Z,17.06
2018-07-25T00:29:42.620Z,17.14
2018-07-25T00:34:47.389Z,17.23
2018-07-25T00:37:17.391Z,17.27
2018-07-25T00:39:46.522Z,17.07
2018-07-25T00:42:17.530Z,16.95
2018-07-25T00:44:46.590Z,16.80
2018-07-25T00:47:15.662Z,16.70
2018-07-25T00:54:58.267Z,16.85
2018-07-25T00:57:28.286Z,16.73
2018-07-25T00:59:57.393Z,16.70
2018-07-25T01:02:26.451Z,16.65
2018-07-25T01:07:34.259Z,16.75
2018-07-25T01:10:03.319Z,16.78
2018-07-25T01:12:32.373Z,16.80
2018-07-25T01:15:01.472Z,16.72
2018-07-25T01:17:30.521Z,16.66
2018-07-25T01:19:59.630Z,16.66
2018-07-25T01:25:06.593Z,16.69
2018-07-25T01:27:35.658Z,16.83
2018-07-25T01:30:04.726Z,16.84
2018-07-25T01:32:33.786Z,16.81
2018-07-25T01:35:02.899Z,16.77
2018-07-25T01:37:31.936Z,16.76
2018-07-25T01:40:01.060Z,16.76
2018-07-25T01:42:30.111Z,16.67
2018-07-25T01:47:35.027Z,16.80
2018-07-25T01:50:04.097Z,16.62
2018-07-25T01:52:34.168Z,16.51
2018-07-25T01:57:39.050Z,16.52
2018-07-25T02:00:08.128Z,16.62
2018-07-25T02:02:37.209Z,16.55
2018-07-25T02:05:08.308Z,16.51
2018-07-25T02:07:37.378Z,16.49
2018-07-25T02:14:08.386Z,16.45
2018-07-25T02:16:37.449Z,16.45
2018-07-25T02:19:06.679Z,16.41
2018-07-25T02:21:35.758Z,16.49
2018-07-25T02:24:04.862Z,16.47
2018-07-25T02:26:33.914Z,16.45
2018-07-25T02:31:38.753Z,16.53
2018-07-25T02:36:43.613Z,16.45
2018-07-25T02:39:12.689Z,16.36
2018-07-25T02:41:41.752Z,16.26
2018-07-25T02:44:10.830Z,16.22
2018-07-25T02:46:39.885Z,16.20
2018-07-25T02:49:08.949Z,16.12
2018-07-25T02:51:38.018Z,16.05
2018-07-25T02:54:07.077Z,16.03
2018-07-25T02:59:11.396Z,16.08
2018-07-25T03:01:40.451Z,16.03
2018-07-25T03:04:10.446Z,16.05
2018-07-25T03:09:15.329Z,16.11
2018-07-25T03:11:44.448Z,16.20
2018-07-25T03:14:13.511Z,16.13
2018-07-25T03:16:42.650Z,16.05
2018-07-25T03:19:11.681Z,15.99
2018-07-25T03:21:40.740Z,15.98
2018-07-25T03:24:09.805Z,15.98
2018-07-25T03:26:38.891Z,15.98
2018-07-25T03:29:07.929Z,15.99
2018-07-25T03:31:37.075Z,15.95
2018-07-25T03:39:18.517Z,15.99
2018-07-25T03:41:47.569Z,15.94
2018-07-25T03:44:16.626Z,15.94
2018-07-25T03:46:49.085Z,15.92
2018-07-25T03:49:19.108Z,15.93
2018-07-25T03:51:48.175Z,15.94
2018-07-25T03:54:17.493Z,15.93
2018-07-25T03:59:22.319Z,15.97
2018-07-25T04:01:51.575Z,15.94
2018-07-25T04:04:20.628Z,15.93
2018-07-25T04:06:49.704Z,15.93
2018-07-25T04:09:18.830Z,15.94
2018-07-25T04:16:59.265Z,16.17
2018-07-25T04:19:32.897Z,16.24
2018-07-25T04:22:02.942Z,16.30
2018-07-25T04:24:33.976Z,16.35
2018-07-25T04:27:03.029Z,16.40
2018-07-25T04:29:32.067Z,16.41
2018-07-25T04:32:01.352Z,16.40
2018-07-25T04:34:30.433Z,16.43
2018-07-25T04:36:59.513Z,16.47
2018-07-25T04:42:04.303Z,16.63
2018-07-25T04:47:09.162Z,16.79
2018-07-25T04:49:40.204Z,16.85
2018-07-25T04:52:09.276Z,16.86
2018-07-25T04:54:38.616Z,16.86
2018-07-25T04:57:07.677Z,16.95
2018-07-25T04:59:36.744Z,17.05
2018-07-25T05:02:06.028Z,17.19
2018-07-25T05:04:35.089Z,17.33
2018-07-25T05:07:05.160Z,17.45
2018-07-25T05:09:34.157Z,17.54
2018-07-25T05:12:03.682Z,17.65
2018-07-25T05:14:32.727Z,17.76
2018-07-25T05:19:37.782Z,18.04
2018-07-25T05:27:21.379Z,18.42
2018-07-25T05:29:53.706Z,18.49
2018-07-25T05:32:22.760Z,18.57
2018-07-25T05:34:51.993Z,18.59
2018-07-25T05:37:22.304Z,18.66
2018-07-25T05:39:51.452Z,18.73
2018-07-25T05:44:56.313Z,19.03
2018-07-25T05:50:01.162Z,19.34
2018-07-25T05:57:58.062Z,19.70
2018-07-25T06:00:50.670Z,19.81
2018-07-25T06:03:27.437Z,19.89
2018-07-25T06:06:04.959Z,19.99
2018-07-25T06:08:37.884Z,20.05
2018-07-25T06:13:45.563Z,20.24
2018-07-25T06:16:16.758Z,20.43
2018-07-25T06:18:46.920Z,20.50
2018-07-25T06:21:30.906Z,20.57
2018-07-25T06:26:35.826Z,20.87
2018-07-25T06:29:04.894Z,21.04
2018-07-25T06:31:37.275Z,21.17
2018-07-25T06:34:06.341Z,21.27
2018-07-25T06:36:43.671Z,21.35
2018-07-25T06:41:49.179Z,21.62
2018-07-25T06:44:18.241Z,21.78
2018-07-25T06:46:50.689Z,21.81
2018-07-25T06:51:55.561Z,22.05
2018-07-25T06:54:25.536Z,22.18
2018-07-25T06:59:30.322Z,22.42
2018-07-25T07:02:00.325Z,22.58
2018-07-25T07:04:29.722Z,22.69
2018-07-25T07:06:59.826Z,22.76
2018-07-25T07:12:04.931Z,22.88
2018-07-25T07:14:33.900Z,22.98
2018-07-25T07:17:02.976Z,23.18
2018-07-25T07:22:08.788Z,23.38
2018-07-25T07:27:13.641Z,23.40
2018-07-25T07:29:42.710Z,23.56
2018-07-25T07:34:47.496Z,23.87
2018-07-25T07:37:18.118Z,24.11
2018-07-25T07:39:47.176Z,24.17
2018-07-25T07:42:16.234Z,24.27
2018-07-25T07:44:45.693Z,24.39
2018-07-25T07:47:14.946Z,24.49
2018-07-25T07:49:44.941Z,24.56
2018-07-25T07:57:25.903Z,24.89
2018-07-25T07:59:55.037Z,24.81
2018-07-25T08:02:24.097Z,25.03
2018-07-25T08:04:53.209Z,25.22
2018-07-25T08:09:58.030Z,25.45
2018-07-25T08:12:27.649Z,25.60
2018-07-25T08:14:56.711Z,25.87
2018-07-25T08:20:01.700Z,26.21
2018-07-25T08:22:30.665Z,26.08
2018-07-25T08:25:03.549Z,26.24
2018-07-25T08:27:35.508Z,26.56
2018-07-25T08:32:40.887Z,26.85
2018-07-25T08:35:10.125Z,26.76
2018-07-25T08:37:39.393Z,26.87
2018-07-25T08:40:08.490Z,26.84
2018-07-25T08:42:39.535Z,26.97
2018-07-25T08:45:09.545Z,27.20
2018-07-25T08:50:14.449Z,27.63
2018-07-25T08:52:43.693Z,27.98
2018-07-25T08:55:12.744Z,28.17
2018-07-25T08:57:41.824Z,28.20
2018-07-25T09:00:15.297Z,28.44
2018-07-25T09:05:20.270Z,28.14
2018-07-25T09:07:50.280Z,28.21
2018-07-25T09:10:19.522Z,28.55
2018-07-25T09:12:48.658Z,28.92
2018-07-25T09:17:55.823Z,29.47
2018-07-25T09:20:29.221Z,29.30
2018-07-25T09:22:58.286Z,29.62
2018-07-25T09:25:28.309Z,30.11
2018-07-25T09:27:57.354Z,31.30
2018-07-25T09:33:02.198Z,33.08
2018-07-25T09:35:31.509Z,34.52
2018-07-25T09:38:00.548Z,35.41
2018-07-25T09:40:29.594Z,36.50
2018-07-25T09:42:58.861Z,36.30
2018-07-25T09:45:27.921Z,37.48
2018-07-25T09:47:56.986Z,36.72
2018-07-25T09:50:26.365Z,36.05
2018-07-25T09:52:55.633Z,34.93
2018-07-25T09:55:24.642Z,35.09
2018-07-25T09:57:53.673Z,35.37
2018-07-25T10:00:24.346Z,37.44
2018-07-25T10:02:53.408Z,37.50
2018-07-25T10:05:22.467Z,37.34
2018-07-25T10:10:30.511Z,35.00
2018-07-25T10:12:59.564Z,34.74
2018-07-25T10:18:04.490Z,37.32
2018-07-25T10:20:35.546Z,37.03
2018-07-25T10:23:04.610Z,37.97
2018-07-25T10:25:34.646Z,38.44
2018-07-25T10:28:03.700Z,39.38
2018-07-25T10:30:32.809Z,39.11
2018-07-25T10:33:02.120Z,34.87
2018-07-25T10:35:31.116Z,35.40
2018-07-25T10:38:00.166Z,35.59
2018-07-25T10:40:29.375Z,36.37
2018-07-25T10:42:58.632Z,38.45
2018-07-25T10:45:27.685Z,39.73
2018-07-25T10:47:56.732Z,41.13
2018-07-25T10:50:25.776Z,40.92
2018-07-25T10:52:54.867Z,40.98
2018-07-25T10:55:23.910Z,40.61
2018-07-25T10:57:53.279Z,41.08
2018-07-25T11:00:22.345Z,39.45
2018-07-25T11:02:51.400Z,35.70
2018-07-25T11:05:20.917Z,34.82
2018-07-25T11:07:50.964Z,35.63
2018-07-25T11:10:22.042Z,38.01
2018-07-25T11:12:52.029Z,39.61
2018-07-25T11:15:21.108Z,40.02
2018-07-25T11:17:50.347Z,39.90
2018-07-25T11:20:19.538Z,39.39
2018-07-25T11:22:48.831Z,35.39
2018-07-25T11:25:18.944Z,36.40
2018-07-25T11:27:48.001Z,38.08
2018-07-25T11:32:53.040Z,37.93
2018-07-25T11:37:57.714Z,36.50
2018-07-25T11:40:26.772Z,38.68
2018-07-25T11:42:56.882Z,40.68
2018-07-25T11:45:26.233Z,40.46
2018-07-25T11:50:31.355Z,37.88
2018-07-25T11:53:00.421Z,42.10
2018-07-25T11:55:29.534Z,40.59
2018-07-25T11:57:59.622Z,38.77
2018-07-25T12:00:28.677Z,36.21
2018-07-25T12:05:33.572Z,39.16
2018-07-25T12:08:02.598Z,42.13
2018-07-25T12:10:32.660Z,42.10
2018-07-25T12:13:01.859Z,43.68
2018-07-25T12:15:30.894Z,44.48
2018-07-25T12:18:00.847Z,45.33
2018-07-25T12:20:30.146Z,45.46
2018-07-25T12:22:59.381Z,44.02
2018-07-25T12:25:28.444Z,43.35
2018-07-25T12:27:57.491Z,43.39
2018-07-25T12:33:03.243Z,42.77
2018-07-25T12:35:35.325Z,41.80
2018-07-25T12:38:04.368Z,42.31
2018-07-25T12:40:33.408Z,38.72
2018-07-25T12:43:02.461Z,37.03
2018-07-25T12:45:31.614Z,36.61
2018-07-25T12:48:00.661Z,35.32
2018-07-25T12:50:29.734Z,34.15
2018-07-25T12:52:58.887Z,37.21
2018-07-25T12:55:28.345Z,40.04
2018-07-25T12:57:59.833Z,41.36
2018-07-25T13:00:28.913Z,42.57
2018-07-25T13:02:57.967Z,43.47
2018-07-25T13:05:27.189Z,42.36
2018-07-25T13:10:33.442Z,43.64
2018-07-25T13:13:02.445Z,41.24
2018-07-25T13:15:31.514Z,41.73
2018-07-25T13:18:00.576Z,43.36
2018-07-25T13:20:29.794Z,43.95
2018-07-25T13:22:58.886Z,44.07
2018-07-25T13:25:27.900Z,42.55
2018-07-25T13:27:57.158Z,43.96
2018-07-25T13:33:02.133Z,43.45
2018-07-25T13:35:31.231Z,44.80
2018-07-25T13:40:37.629Z,44.02
2018-07-25T13:43:06.693Z,43.98
2018-07-25T13:45:35.843Z,44.54
2018-07-25T13:48:05.241Z,44.12
2018-07-25T13:50:34.288Z,45.35
2018-07-25T13:53:03.349Z,45.59
2018-07-25T13:55:36.328Z,45.12
2018-07-25T13:58:06.735Z,46.70
2018-07-25T14:03:13.041Z,44.23
2018-07-25T14:05:42.086Z,40.04
2018-07-25T14:08:11.151Z,41.82
2018-07-25T14:10:41.228Z,44.33
2018-07-25T14:13:10.744Z,45.42
2018-07-25T14:15:40.737Z,43.44
2018-07-25T14:18:09.889Z,43.63
2018-07-25T14:20:39.060Z,44.20
2018-07-25T14:23:10.594Z,45.88
2018-07-25T14:25:39.641Z,46.57
2018-07-25T14:28:08.697Z,41.92
2018-07-25T14:30:37.789Z,45.91
2018-07-25T14:33:07.068Z,43.27
2018-07-25T14:35:37.115Z,44.29
2018-07-25T14:38:08.171Z,46.28
2018-07-25T14:40:37.232Z,44.41
2018-07-25T14:43:07.287Z,42.95
2018-07-25T14:45:36.762Z,41.55
2018-07-25T14:48:06.819Z,41.18
2018-07-25T14:50:35.864Z,38.42
2018-07-25T14:53:04.928Z,36.33
2018-07-25T14:55:34.892Z,33.92
2018-07-25T14:58:03.977Z,33.92
2018-07-25T15:00:33.057Z,35.84
2018-07-25T15:03:02.194Z,36.96
2018-07-25T15:05:31.232Z,40.14
2018-07-25T15:08:00.289Z,41.49
2018-07-25T15:10:29.359Z,44.29
2018-07-25T15:12:58.860Z,46.19
2018-07-25T15:15:27.924Z,40.11
2018-07-25T15:17:56.981Z,39.14
2018-07-25T15:23:02.009Z,35.87
2018-07-25T15:25:31.062Z,36.81
2018-07-25T15:28:01.227Z,41.20
2018-07-25T15:30:32.608Z,43.26
2018-07-25T15:33:06.685Z,46.18
2018-07-25T15:38:11.545Z,44.42
2018-07-25T15:40:42.733Z,45.55
2018-07-25T15:43:12.877Z,42.00
2018-07-25T15:45:41.913Z,42.43
2018-07-25T15:50:52.476Z,36.19
2018-07-25T15:53:21.660Z,34.91
2018-07-25T15:55:50.702Z,34.64
2018-07-25T16:00:55.618Z,36.05
2018-07-25T16:03:24.809Z,36.90
2018-07-25T16:05:53.839Z,40.34
2018-07-25T16:08:24.065Z,40.19
2018-07-25T16:10:54.155Z,41.09
2018-07-25T16:13:24.232Z,39.84
2018-07-25T16:15:53.273Z,37.70
2018-07-25T16:18:22.673Z,36.77
2018-07-25T16:20:51.717Z,39.31
2018-07-25T16:23:20.792Z,38.75
2018-07-25T16:25:49.851Z,39.26
2018-07-25T16:28:19.170Z,39.10
2018-07-25T16:30:48.234Z,38.09
2018-07-25T16:33:17.307Z,37.53
2018-07-25T16:35:48.356Z,35.05
2018-07-25T16:38:17.408Z,34.60
2018-07-25T16:40:46.469Z,33.06
2018-07-25T16:43:15.551Z,31.93
2018-07-25T16:45:44.901Z,30.70
2018-07-25T16:48:15.936Z,30.04
2018-07-25T16:50:47.037Z,29.39
2018-07-25T16:53:16.149Z,29.54
2018-07-25T16:55:46.166Z,29.43
2018-07-25T16:58:15.578Z,29.90
2018-07-25T17:00:44.664Z,29.45
2018-07-25T17:03:13.718Z,29.14
2018-07-25T17:08:18.556Z,28.00
2018-07-25T17:10:47.816Z,27.19
2018-07-25T17:13:16.995Z,26.26
2018-07-25T17:15:46.044Z,25.85
2018-07-25T17:18:15.097Z,25.85
2018-07-25T17:20:45.341Z,25.63
2018-07-25T17:25:50.212Z,25.98
2018-07-25T17:28:29.833Z,25.34
2018-07-25T17:33:41.355Z,25.16
2018-07-25T17:36:19.478Z,25.32
2018-07-25T17:38:52.534Z,25.10
2018-07-25T17:43:57.407Z,25.08
2018-07-25T17:46:26.485Z,25.18
2018-07-25T17:48:55.519Z,25.06
2018-07-25T17:51:41.757Z,24.84
2018-07-25T17:54:14.507Z,24.31
2018-07-25T17:56:43.585Z,24.19
2018-07-25T17:59:14.614Z,24.43
2018-07-25T18:01:43.674Z,24.36
2018-07-25T18:04:13.049Z,24.30
2018-07-25T18:06:42.119Z,24.33
2018-07-25T18:11:47.982Z,24.50
2018-07-25T18:14:17.036Z,24.59
2018-07-25T18:16:46.110Z,24.52
2018-07-25T18:19:15.179Z,24.64
2018-07-25T18:21:46.121Z,24.49
2018-07-25T18:24:15.229Z,24.31
2018-07-25T18:29:20.149Z,24.13
2018-07-25T18:31:50.089Z,23.95
2018-07-25T18:34:20.113Z,23.49
2018-07-25T18:36:49.162Z,23.24
2018-07-25T18:39:21.963Z,23.18
2018-07-25T18:41:51.014Z,23.42
2018-07-25T18:44:20.112Z,23.41
2018-07-25T18:49:24.975Z,23.18
2018-07-25T18:51:54.062Z,23.15
2018-07-25T18:54:23.317Z,22.99
2018-07-25T18:59:28.139Z,23.05
2018-07-25T19:01:57.263Z,22.99
2018-07-25T19:04:26.257Z,22.95
2018-07-25T19:06:56.313Z,23.14
2018-07-25T19:09:25.369Z,23.22
2018-07-25T19:11:54.426Z,23.31
2018-07-25T19:16:59.211Z,23.39
2018-07-25T19:19:28.285Z,23.34
2018-07-25T19:21:58.295Z,22.94
2018-07-25T19:24:27.337Z,22.73
2018-07-25T19:26:56.421Z,22.80
2018-07-25T19:29:27.437Z,22.89
2018-07-25T19:31:56.621Z,22.67
2018-07-25T19:34:25.680Z,22.35
2018-07-25T19:36:54.733Z,21.82
2018-07-25T19:39:27.109Z,21.88
2018-07-25T19:44:31.997Z,21.90
2018-07-25T19:47:02.170Z,21.98
2018-07-25T19:49:31.239Z,21.81
2018-07-25T19:52:00.284Z,21.88
2018-07-25T19:54:30.379Z,21.83
2018-07-25T19:56:59.353Z,21.76
2018-07-25T19:59:28.403Z,21.67
2018-07-25T20:01:57.489Z,21.76
2018-07-25T20:04:26.545Z,21.61
2018-07-25T20:06:55.653Z,21.56
2018-07-25T20:09:24.651Z,21.58
2018-07-25T20:11:53.699Z,21.30
2018-07-25T20:19:34.330Z,21.18
2018-07-25T20:22:03.382Z,21.09
2018-07-25T20:24:32.452Z,21.12
2018-07-25T20:27:02.417Z,21.22
2018-07-25T20:29:31.567Z,21.36
2018-07-25T20:32:00.577Z,21.41
2018-07-25T20:34:29.630Z,21.37
2018-07-25T20:36:58.714Z,21.39
2018-07-25T20:39:27.817Z,21.22
2018-07-25T20:41:57.816Z,21.11
2018-07-25T20:44:26.878Z,21.18
2018-07-25T20:46:55.977Z,21.23
2018-07-25T20:49:26.164Z,21.25
2018-07-25T20:51:57.636Z,21.30
2018-07-25T20:59:38.267Z,20.90
2018-07-25T21:02:07.306Z,20.80
2018-07-25T21:04:36.348Z,20.59
2018-07-25T21:07:05.412Z,20.59
2018-07-25T21:09:36.459Z,20.68
2018-07-25T21:12:05.640Z,20.78
2018-07-25T21:14:35.673Z,20.77
2018-07-25T21:17:04.728Z,20.76
2018-07-25T21:19:33.777Z,20.76
2018-07-25T21:24:38.547Z,20.99
2018-07-25T21:27:07.665Z,21.01
2018-07-25T21:29:37.636Z,21.01
2018-07-25T21:32:08.691Z,20.99
2018-07-25T21:34:38.705Z,20.98
2018-07-25T21:37:09.745Z,20.73
2018-07-25T21:39:38.851Z,20.76
2018-07-25T21:42:08.078Z,20.75
2018-07-25T21:47:20.205Z,20.65
2018-07-25T21:49:49.687Z,20.73
2018-07-25T21:52:18.762Z,20.67
2018-07-25T21:57:24.550Z,20.68
2018-07-25T21:59:53.613Z,20.59
2018-07-25T22:02:22.677Z,20.53
2018-07-25T22:04:52.669Z,20.45
2018-07-25T22:07:21.740Z,20.34
2018-07-25T22:09:50.834Z,20.21
2018-07-25T22:12:19.897Z,20.03
2018-07-25T22:14:49.021Z,19.99
2018-07-25T22:17:18.146Z,19.94
2018-07-25T22:19:47.347Z,19.92
2018-07-25T22:24:52.137Z,20.04
2018-07-25T22:29:57.017Z,19.87
2018-07-25T22:32:26.083Z,19.87
2018-07-25T22:37:30.946Z,19.63
2018-07-25T22:40:00.015Z,19.60
2018-07-25T22:42:29.087Z,19.56
2018-07-25T22:44:58.150Z,19.46
2018-07-25T22:47:30.994Z,19.44
2018-07-25T22:50:00.054Z,19.35
2018-07-25T22:52:29.105Z,19.31
2018-07-25T22:55:02.193Z,19.23
2018-07-25T22:57:32.250Z,19.16
2018-07-25T23:00:01.448Z,19.05
2018-07-25T23:02:30.505Z,19.05
2018-07-25T23:04:59.630Z,19.18
2018-07-25T23:07:28.707Z,19.21
2018-07-25T23:09:57.756Z,18.91
2018-07-25T23:12:27.869Z,18.87
2018-07-25T23:14:57.869Z,18.85
2018-07-25T23:17:26.926Z,18.88
2018-07-25T23:19:56.046Z,18.70
2018-07-25T23:22:27.009Z,18.48
2018-07-25T23:24:56.065Z,18.26
2018-07-25T23:27:26.105Z,18.19
2018-07-25T23:32:31.892Z,18.40
2018-07-25T23:35:01.917Z,18.57
2018-07-25T23:37:32.989Z,18.56
2018-07-25T23:40:02.058Z,18.60
2018-07-25T23:42:34.890Z,18.66
2018-07-25T23:45:03.962Z,18.68
2018-07-25T23:47:33.045Z,18.77
2018-07-25T23:50:02.127Z,18.78
2018-07-25T23:52:33.206Z,18.80
2018-07-25T23:55:02.274Z,18.74
2018-07-25T23:57:31.340Z,18.64
